Time;durP1;ratioP1;P1;durP2;ratioP2;P2;SDS_P1;SDS_P2;PMS_P1;PMS_P2;Temp;Humidity;BMP_temperature;BMP_pressure;BME280_temperature;BME280_humidity;BME280_pressure;Samples;Min_cycle;Max_cycle;Signal;HPM_P1;HPM_P2
2023/02/25 00:01:12;;;;;;;83.85;43.53;;;;;;;4.89;82.24;98989.97;5111468;28;20031;-68
2023/02/25 00:03:38;;;;;;;77.63;40.88;;;;;;;4.75;83.44;98989.94;5111466;28;20023;-68
2023/02/25 00:06:06;;;;;;;86.13;44.28;;;;;;;4.81;83.62;98988.72;5110233;28;20062;-68
2023/02/25 00:08:33;;;;;;;98.80;44.97;;;;;;;4.26;86.34;98984.78;5111377;28;20031;-69
2023/02/25 00:11:01;;;;;;;84.00;43.97;;;;;;;4.41;87.83;98988.38;5111465;28;20027;-68
2023/02/25 00:13:27;;;;;;;82.63;43.05;;;;;;;4.70;85.68;99001.97;5110249;28;20019;-68
2023/02/25 00:15:53;;;;;;;82.10;40.80;;;;;;;4.89;83.76;98999.09;5111524;28;20028;-68
2023/02/25 00:18:19;;;;;;;81.57;40.63;;;;;;;4.97;82.13;98985.63;5111348;28;20031;-68
2023/02/25 00:20:44;;;;;;;96.32;48.25;;;;;;;4.99;81.74;98988.91;5110141;28;20031;-68
2023/02/25 00:23:10;;;;;;;86.07;44.70;;;;;;;4.88;82.24;98980.81;5111123;28;20062;-68
2023/02/25 00:25:35;;;;;;;91.47;46.55;;;;;;;4.79;81.99;98979.88;5113640;28;20031;-68
2023/02/25 00:28:05;;;;;;;94.68;46.35;;;;;;;4.94;81.91;98980.69;5114075;28;20512;-68
2023/02/25 00:30:31;;;;;;;84.87;41.77;;;;;;;4.92;80.94;98973.50;5112919;28;20069;-69
2023/02/25 00:32:57;;;;;;;109.50;49.75;;;;;;;4.93;80.93;98974.34;5115313;28;20039;-68
2023/02/25 00:35:23;;;;;;;86.53;45.35;;;;;;;4.76;82.39;98969.44;5115220;28;20027;-68
2023/02/25 00:37:50;;;;;;;81.97;40.72;;;;;;;4.67;83.34;98971.28;5115330;28;20035;-68
2023/02/25 00:40:16;;;;;;;81.68;39.97;;;;;;;4.44;85.23;98963.69;5113765;28;20123;-68
2023/02/25 00:42:42;;;;;;;81.97;42.45;;;;;;;4.35;85.20;98957.19;5114045;28;20027;-69
2023/02/25 00:45:08;;;;;;;72.45;37.75;;;;;;;4.31;85.26;98964.50;5113796;28;20027;-68
2023/02/25 00:47:34;;;;;;;83.88;39.35;;;;;;;4.44;84.84;98951.75;5114131;28;20053;-68
2023/02/25 00:49:59;;;;;;;78.68;40.17;;;;;;;4.13;86.75;98955.13;5114944;28;20024;-68
2023/02/25 00:52:24;;;;;;;72.47;38.90;;;;;;;4.20;86.81;98958.31;5113683;28;20031;-68
2023/02/25 00:54:50;;;;;;;76.95;39.78;;;;;;;3.89;88.76;98945.03;5114782;28;20023;-68
2023/02/25 00:57:16;;;;;;;71.78;36.75;;;;;;;3.70;90.33;98951.41;5113618;28;20030;-68
2023/02/25 00:59:41;;;;;;;73.43;37.33;;;;;;;3.86;89.68;98951.97;5114834;28;20053;-68
2023/02/25 01:02:06;;;;;;;75.20;36.65;;;;;;;4.03;89.57;98934.81;5114776;28;20039;-68
2023/02/25 01:04:32;;;;;;;66.38;37.03;;;;;;;4.04;88.64;98932.84;5112165;28;20028;-69
2023/02/25 01:06:58;;;;;;;75.18;37.05;;;;;;;4.21;88.09;98935.03;5114671;28;20046;-68
2023/02/25 01:09:24;;;;;;;76.60;37.97;;;;;;;4.35;86.69;98930.34;5109090;28;20596;-68
2023/02/25 01:11:50;;;;;;;79.82;39.50;;;;;;;4.40;85.28;98925.81;5114602;28;20106;-68
2023/02/25 01:14:19;;;;;;;77.18;38.65;;;;;;;4.57;83.58;98928.78;5114438;28;20129;-68
2023/02/25 01:16:46;;;;;;;79.18;40.35;;;;;;;4.27;83.99;98924.69;5114473;28;20027;-68
2023/02/25 01:19:17;;;;;;;73.88;38.17;;;;;;;4.37;83.83;98907.88;5111762;28;20076;-68
2023/02/25 01:21:45;;;;;;;82.95;41.28;;;;;;;4.54;83.34;98912.78;5113649;28;20479;-68
2023/02/25 01:24:16;;;;;;;76.57;39.80;;;;;;;4.59;81.88;98915.47;5113933;28;20054;-68
2023/02/25 01:26:44;;;;;;;80.95;40.78;;;;;;;4.62;81.99;98917.63;5114327;28;20383;-68
2023/02/25 01:29:18;;;;;;;74.32;39.65;;;;;;;4.67;80.92;98921.41;5114143;28;20036;-68
2023/02/25 01:31:44;;;;;;;73.75;38.60;;;;;;;4.66;80.62;98917.00;5114069;28;20024;-68
2023/02/25 01:34:14;;;;;;;80.00;41.45;;;;;;;4.68;81.02;98911.97;5114087;28;20146;-68
2023/02/25 01:36:39;;;;;;;79.75;39.53;;;;;;;4.69;80.66;98897.81;5110955;28;20024;-68
2023/02/25 01:39:05;;;;;;;81.80;39.63;;;;;;;4.64;80.24;98900.66;5114249;28;20455;-68
2023/02/25 01:41:33;;;;;;;77.32;39.55;;;;;;;4.65;80.74;98905.09;5113086;27;20028;-68
2023/02/25 01:44:01;;;;;;;76.50;38.58;;;;;;;4.68;80.61;98895.34;5112515;28;20027;-68
2023/02/25 01:46:28;;;;;;;76.00;41.05;;;;;;;4.72;80.28;98899.16;5113914;28;20078;-68
2023/02/25 01:48:55;;;;;;;72.72;39.45;;;;;;;4.62;79.28;98901.00;5113889;28;20410;-68
2023/02/25 01:51:24;;;;;;;67.25;36.90;;;;;;;4.61;79.03;98893.81;5112382;28;20080;-68
2023/02/25 01:53:50;;;;;;;81.97;41.53;;;;;;;4.52;79.63;98898.44;5113822;28;20051;-68
2023/02/25 01:56:19;;;;;;;78.07;41.42;;;;;;;4.68;79.55;98898.09;5112498;28;20459;-68
2023/02/25 01:58:47;;;;;;;82.55;40.03;;;;;;;4.48;78.80;98897.41;5112315;28;20081;-68
2023/02/25 02:01:16;;;;;;;81.90;41.65;;;;;;;4.49;79.19;98897.09;5113546;28;20031;-68
2023/02/25 02:03:42;;;;;;;81.07;40.58;;;;;;;4.06;80.88;98889.91;5113561;28;20119;-69
2023/02/25 02:06:26;;;;;;;79.38;39.33;;;;;;;4.27;79.79;98896.97;5113450;28;20106;-68
2023/02/25 02:08:53;;;;;;;76.43;40.08;;;;;;;4.05;79.73;98893.81;5113570;28;20023;-68
2023/02/25 02:11:18;;;;;;;80.00;40.25;;;;;;;3.81;80.68;98895.91;5112133;28;20023;-68
2023/02/25 02:13:50;;;;;;;73.63;39.45;;;;;;;3.60;79.67;98887.97;5113380;28;20106;-69
2023/02/25 02:16:24;;;;;;;78.18;38.10;;;;;;;3.02;82.92;98898.28;5113263;28;20027;-69
2023/02/25 02:19:24;;;;;;;75.93;38.78;;;;;;;2.82;88.18;98894.69;5112072;28;20553;-68
2023/02/25 02:22:22;;;;;;;76.65;38.38;;;;;;;2.90;90.30;98884.91;5113248;28;20031;-68
2023/02/25 02:25:06;;;;;;;84.25;41.40;;;;;;;2.59;92.66;98880.63;5079184;27;20043;-68
2023/02/25 02:28:22;;;;;;;87.18;45.25;;;;;;;2.25;96.05;98881.59;5113245;28;20024;-68
2023/02/25 02:31:16;;;;;;;77.13;39.55;;;;;;;2.45;98.33;98874.19;5077601;28;20043;-69
2023/02/25 02:34:15;;;;;;;73.60;37.25;;;;;;;2.54;94.95;98875.19;5113031;28;20027;-68
2023/02/25 02:37:11;;;;;;;73.00;36.05;;;;;;;2.32;95.04;98882.06;5111829;28;20024;-68
2023/02/25 02:39:58;;;;;;;68.57;35.28;;;;;;;1.97;98.56;98884.13;5081094;28;20066;-68
2023/02/25 02:42:44;;;;;;;72.30;37.00;;;;;;;1.90;98.98;98881.69;5112904;28;20024;-68
2023/02/25 02:45:22;;;;;;;78.22;36.53;;;;;;;1.85;100.00;98872.66;5111545;28;20069;-68
2023/02/25 02:48:31;;;;;;;77.95;38.58;;;;;;;2.29;98.47;98881.81;5111029;28;20414;-68
2023/02/25 02:51:01;;;;;;;76.00;37.75;;;;;;;2.04;96.88;98876.28;5104667;28;20071;-68
2023/02/25 02:53:47;;;;;;;79.30;37.78;;;;;;;1.96;97.74;98874.19;5112653;27;20016;-68
2023/02/25 02:56:17;;;;;;;77.68;36.47;;;;;;;2.01;98.66;98879.66;5111278;28;20119;-68
2023/02/25 02:59:00;;;;;;;79.70;37.47;;;;;;;1.82;98.50;98868.53;5111264;28;20028;-68
2023/02/25 03:01:30;;;;;;;76.30;38.85;;;;;;;1.95;98.47;98873.34;5111189;28;20038;-68
2023/02/25 03:04:01;;;;;;;;;;;;;;;2.13;97.65;98881.19;5113335;28;20138;-68
2023/02/25 03:06:32;;;;;;;75.60;37.42;;;;;;;1.70;98.44;98871.69;5112344;28;20401;-68
2023/02/25 03:09:04;;;;;;;72.93;35.83;;;;;;;1.51;100.00;98864.16;5112375;28;20034;-68
2023/02/25 03:11:30;;;;;;;73.40;35.45;;;;;;;1.53;100.00;98875.69;5112265;27;20031;-68
2023/02/25 03:13:55;;;;;;;77.00;35.78;;;;;;;1.70;100.00;98871.69;5110814;28;20020;-67
2023/02/25 03:16:36;;;;;;;71.97;36.97;;;;;;;2.15;100.00;98878.94;5110908;27;20020;-68
2023/02/25 03:19:17;;;;;;;72.82;35.25;;;;;;;2.20;98.25;98879.72;5110917;28;20054;-68
2023/02/25 03:21:48;;;;;;;72.53;36.10;;;;;;;2.14;95.77;98878.13;5110698;28;20061;-67
2023/02/25 03:24:21;;;;;;;73.75;34.67;;;;;;;1.78;96.03;98878.53;5111876;28;20263;-68
2023/02/25 03:26:49;;;;;;;76.85;34.92;;;;;;;1.74;97.59;98877.44;5110736;28;20490;-68
2023/02/25 03:29:18;;;;;;;74.93;35.47;;;;;;;1.99;96.34;98879.13;5111964;28;20036;-68
2023/02/25 03:31:55;;;;;;;71.15;36.05;;;;;;;2.30;95.10;98870.50;5111899;28;20027;-68
2023/02/25 03:34:50;;;;;;;71.45;34.10;;;;;;;2.43;93.50;98870.91;5091577;28;20491;-68
2023/02/25 03:37:28;;;;;;;68.07;34.10;;;;;;;2.59;91.48;98872.34;5102047;28;20040;-68
2023/02/25 03:39:58;;;;;;;67.35;33.28;;;;;;;2.47;90.66;98863.66;5091529;28;20032;-68
2023/02/25 03:42:31;;;;;;;73.93;36.30;;;;;;;2.68;90.52;98861.44;5091480;28;20024;-68
2023/02/25 03:45:00;;;;;;;75.00;38.58;;;;;;;2.91;89.67;98854.22;5101227;28;20498;-68
2023/02/25 03:47:28;;;;;;;77.82;38.22;;;;;;;3.02;88.96;98859.59;5111668;28;20478;-68
2023/02/25 03:50:08;;;;;;;75.22;38.03;;;;;;;3.17;88.25;98851.06;5110553;28;20035;-68
2023/02/25 03:52:34;;;;;;;77.65;36.38;;;;;;;3.25;86.50;98848.72;5110241;28;20111;-67
2023/02/25 03:55:01;;;;;;;71.32;35.13;;;;;;;3.28;85.71;98839.84;5111678;27;20023;-67
2023/02/25 03:57:35;;;;;;;71.35;35.72;;;;;;;3.26;85.42;98844.84;5111541;28;20076;-68
2023/02/25 04:00:00;;;;;;;70.30;36.30;;;;;;;3.37;84.76;98838.00;5110669;28;20114;-68
2023/02/25 04:02:31;;;;;;;69.15;34.72;;;;;;;3.35;84.67;98843.88;5111437;28;20066;-68
2023/02/25 04:04:57;;;;;;;69.25;34.80;;;;;;;3.31;84.05;98830.94;5110159;28;20413;-67
2023/02/25 04:07:22;;;;;;;68.72;34.72;;;;;;;3.40;84.20;98836.59;5110486;28;20027;-68
2023/02/25 04:09:47;;;;;;;67.10;33.28;;;;;;;3.48;84.11;98845.00;5111620;28;20048;-68
2023/02/25 04:12:14;;;;;;;59.70;30.50;;;;;;;3.58;83.42;98838.50;5111434;28;20205;-68
2023/02/25 04:14:39;;;;;;;67.50;34.60;;;;;;;3.58;82.96;98829.38;5110150;28;20054;-68
2023/02/25 04:17:05;;;;;;;59.85;31.88;;;;;;;3.53;81.77;98827.50;5109934;28;20509;-68
2023/02/25 04:19:31;;;;;;;59.42;31.42;;;;;;;3.22;81.62;98826.09;5111470;28;20440;-68
2023/02/25 04:21:57;;;;;;;63.72;33.17;;;;;;;2.99;82.63;98822.34;5110410;28;20023;-68
2023/02/25 04:24:22;;;;;;;63.63;31.83;;;;;;;2.93;83.05;98818.81;5109797;28;20054;-68
2023/02/25 04:26:48;;;;;;;66.40;32.22;;;;;;;3.05;82.38;98814.78;5111745;28;20488;-68
2023/02/25 04:29:13;;;;;;;61.58;30.63;;;;;;;3.07;81.50;98812.53;5111288;28;20028;-68
2023/02/25 04:31:38;;;;;;;61.38;31.88;;;;;;;2.82;82.27;98820.09;5111203;28;20049;-68
2023/02/25 04:34:04;;;;;;;68.18;31.60;;;;;;;2.98;81.43;98811.56;5111368;28;20106;-68
2023/02/25 04:36:33;;;;;;;62.58;34.25;;;;;;;2.63;82.69;98825.63;5109871;28;20034;-68
2023/02/25 04:39:02;;;;;;;74.45;34.15;;;;;;;2.56;84.20;98819.66;5108884;28;20088;-69
2023/02/25 04:41:32;;;;;;;66.35;33.25;;;;;;;1.92;89.55;98815.19;5111328;28;20084;-68
2023/02/25 04:43:59;;;;;;;68.97;31.85;;;;;;;1.81;95.22;98818.09;5111028;28;20541;-68
2023/02/25 04:46:25;;;;;;;69.90;34.17;;;;;;;1.38;96.15;98809.69;5111243;28;20445;-68
2023/02/25 04:48:50;;;;;;;76.60;37.08;;;;;;;1.57;97.24;98814.47;5109694;28;20019;-68
2023/02/25 04:51:16;;;;;;;86.10;41.33;;;;;;;1.21;99.70;98810.97;5111154;28;20038;-68
2023/02/25 04:53:42;;;;;;;88.18;40.63;;;;;;;1.59;99.07;98815.03;5109908;28;20024;-68
2023/02/25 04:56:09;;;;;;;76.05;36.88;;;;;;;1.77;97.02;98805.97;5109811;28;20068;-68
2023/02/25 04:58:35;;;;;;;62.30;33.10;;;;;;;1.62;94.69;98812.47;5110902;28;20042;-67
2023/02/25 05:01:04;;;;;;;60.80;30.05;;;;;;;1.98;93.78;98803.00;5109660;28;20015;-68
2023/02/25 05:03:30;;;;;;;58.80;31.45;;;;;;;2.20;91.44;98796.13;5110893;28;20460;-68
2023/02/25 05:05:56;;;;;;;63.22;30.77;;;;;;;2.10;88.75;98794.28;5109657;28;20069;-68
2023/02/25 05:08:22;;;;;;;53.65;27.95;;;;;;;2.10;87.98;98792.38;5110957;28;20031;-67
2023/02/25 05:10:49;;;;;;;62.53;31.58;;;;;;;2.23;87.15;98788.06;5111825;28;20482;-68
2023/02/25 05:13:14;;;;;;;61.47;28.55;;;;;;;1.93;86.51;98786.50;5113355;28;20383;-68
2023/02/25 05:15:40;;;;;;;80.80;36.85;;;;;;;1.87;86.50;98782.16;5112406;28;20042;-68
2023/02/25 05:18:05;;;;;;;84.32;41.10;;;;;;;1.18;86.98;98774.91;5101956;28;20024;-68
2023/02/25 05:20:31;;;;;;;73.05;34.00;;;;;;;1.33;86.94;98784.97;5094138;28;20472;-68
2023/02/25 05:22:56;;;;;;;64.13;32.65;;;;;;;1.40;86.03;98800.03;5092362;28;20067;-68
2023/02/25 05:25:22;;;;;;;78.53;36.20;;;;;;;0.93;88.95;98801.53;5092695;28;20031;-68
2023/02/25 05:27:48;;;;;;;59.28;32.65;;;;;;;0.91;90.89;98801.81;5093650;28;20023;-71
2023/02/25 05:30:14;;;;;;;59.50;29.48;;;;;;;1.28;90.17;98790.50;5110306;28;20054;-68
2023/02/25 05:32:39;;;;;;;56.40;29.00;;;;;;;1.38;89.96;98795.91;5113641;28;20110;-68
2023/02/25 05:35:09;;;;;;;60.90;31.02;;;;;;;1.66;88.77;98805.28;5113525;28;20111;-69
2023/02/25 05:37:36;;;;;;;60.03;30.40;;;;;;;1.74;86.98;98817.59;5102988;28;20379;-67
2023/02/25 05:40:05;;;;;;;62.38;30.98;;;;;;;1.69;86.71;98820.44;5112831;28;20038;-67
2023/02/25 05:42:31;;;;;;;58.58;29.90;;;;;;;2.10;86.07;98819.13;5114033;28;20102;-68
2023/02/25 05:44:57;;;;;;;66.22;31.05;;;;;;;2.19;85.21;98819.31;5104783;28;20119;-67
2023/02/25 05:47:22;;;;;;;71.53;38.03;;;;;;;2.35;86.37;98811.63;5089508;28;20032;-67
2023/02/25 05:49:47;;;;;;;100.03;47.42;;;;;;;2.65;86.14;98806.81;5089748;28;20028;-67
2023/02/25 05:52:13;;;;;;;90.68;44.40;;;;;;;2.89;85.24;98792.91;5090764;28;20031;-67
2023/02/25 05:54:39;;;;;;;106.80;47.28;;;;;;;3.04;84.45;98794.59;5090791;28;20039;-67
2023/02/25 05:57:04;;;;;;;92.25;50.78;;;;;;;3.15;84.46;98798.03;5090606;28;20042;-67
2023/02/25 05:59:30;;;;;;;102.60;49.03;;;;;;;3.31;83.77;98786.72;5098352;28;20023;-67
2023/02/25 06:01:56;;;;;;;95.63;50.05;;;;;;;3.26;83.04;98784.84;5111073;28;20070;-67
2023/02/25 06:04:21;;;;;;;88.82;47.92;;;;;;;2.99;85.21;98800.22;5109544;28;20134;-67
2023/02/25 06:06:49;;;;;;;93.63;44.90;;;;;;;2.89;88.20;98784.63;5109564;28;20171;-68
2023/02/25 06:09:18;;;;;;;81.85;45.83;;;;;;;3.20;87.38;98775.81;5110481;28;20118;-68
2023/02/25 06:11:45;;;;;;;68.03;36.55;;;;;;;3.07;88.51;98776.59;5110762;28;20042;-67
2023/02/25 06:14:12;;;;;;;72.80;35.95;;;;;;;2.87;90.19;98786.06;5110808;28;20023;-68
2023/02/25 06:16:39;;;;;;;86.57;47.50;;;;;;;2.58;92.93;98807.19;5108655;28;20920;-67
2023/02/25 06:19:08;;;;;;;90.47;47.75;;;;;;;2.63;93.57;98809.06;5109417;28;20035;-67
2023/02/25 06:21:34;;;;;;;96.20;51.20;;;;;;;2.76;93.29;98821.28;5110292;28;20036;-67
2023/02/25 06:24:04;;;;;;;87.03;46.85;;;;;;;2.89;92.74;98808.69;5107489;28;20814;-66
2023/02/25 06:26:30;;;;;;;;;;;;;;;3.20;91.74;98808.19;5111394;28;20053;-68
2023/02/25 06:28:55;;;;;;;69.03;35.63;;;;;;;2.86;94.81;98815.59;5110469;28;19908;-67
2023/02/25 06:31:23;;;;;;;61.55;32.53;;;;;;;3.11;93.34;98829.34;5110271;28;20058;-68
2023/02/25 06:33:50;;;;;;;58.75;33.03;;;;;;;2.94;94.57;98822.41;5109914;28;20027;-68
2023/02/25 06:36:19;;;;;;;59.10;34.42;;;;;;;3.12;95.14;98825.44;5108386;28;20102;-65
2023/02/25 06:38:45;;;;;;;60.07;32.47;;;;;;;3.02;96.05;98829.22;5108877;28;20093;-69
2023/02/25 06:41:16;;;;;;;56.78;30.58;;;;;;;2.99;97.03;98822.34;5106079;28;20035;-68
2023/02/25 06:43:42;;;;;;;63.33;33.00;;;;;;;3.15;97.19;98820.16;5121092;27;20063;-67
2023/02/25 06:46:10;;;;;;;95.30;46.00;;;;;;;3.30;97.42;98832.88;5116985;27;20409;-68
2023/02/25 06:48:36;;;;;;;60.53;34.42;;;;;;;3.54;97.51;98842.16;5115975;27;20778;-68
2023/02/25 06:51:07;;;;;;;92.63;40.10;;;;;;;3.23;99.04;98833.25;5113390;27;20154;-68
2023/02/25 06:53:33;;;;;;;75.88;36.70;;;;;;;3.45;100.00;98831.78;5117083;27;20113;-68
2023/02/25 06:55:59;;;;;;;61.83;30.90;;;;;;;3.33;100.00;98837.81;5102443;27;20051;-67
2023/02/25 06:58:24;;;;;;;70.97;36.40;;;;;;;3.35;100.00;98845.78;5110232;28;20058;-66
2023/02/25 07:00:50;;;;;;;66.63;34.30;;;;;;;3.26;100.00;98844.84;5112329;28;20024;-68
2023/02/25 07:03:16;;;;;;;71.50;36.95;;;;;;;3.44;100.00;98843.16;5105787;27;20027;-69
2023/02/25 07:05:41;;;;;;;65.65;34.78;;;;;;;3.64;100.00;98833.69;5110763;28;20027;-67
2023/02/25 07:08:09;;;;;;;89.07;43.72;;;;;;;3.43;100.00;98820.22;5110719;28;20408;-68
2023/02/25 07:10:35;;;;;;;81.57;39.75;;;;;;;3.41;100.00;98825.25;5111800;28;20045;-68
2023/02/25 07:13:01;;;;;;;68.93;35.42;;;;;;;3.43;100.00;98835.97;5108389;28;20024;-68
2023/02/25 07:15:26;;;;;;;62.83;33.22;;;;;;;3.55;100.00;98832.75;5107609;27;20027;-69
2023/02/25 07:17:52;;;;;;;84.28;36.80;;;;;;;3.50;100.00;98841.94;5108217;27;20032;-67
2023/02/25 07:20:18;;;;;;;65.43;33.30;;;;;;;3.86;100.00;98826.63;5105587;28;20028;-69
2023/02/25 07:22:43;;;;;;;73.05;35.58;;;;;;;3.79;100.00;98836.16;5108797;28;20023;-68
2023/02/25 07:25:12;;;;;;;71.80;34.47;;;;;;;3.72;100.00;98838.50;5109242;27;20054;-67
2023/02/25 07:27:42;;;;;;;68.85;35.92;;;;;;;3.62;100.00;98834.00;5107508;28;20053;-68
2023/02/25 07:30:10;;;;;;;71.20;31.83;;;;;;;3.63;100.00;98819.03;5109112;28;20062;-67
2023/02/25 07:32:36;;;;;;;73.55;38.92;;;;;;;3.81;100.00;98824.81;5109237;28;20039;-67
2023/02/25 07:35:01;;;;;;;84.00;40.15;;;;;;;3.79;100.00;98811.28;5106859;28;20028;-68
2023/02/25 07:37:27;;;;;;;76.75;34.85;;;;;;;3.89;100.00;98798.38;5108436;28;20031;-68
2023/02/25 07:39:53;;;;;;;66.68;33.55;;;;;;;3.97;100.00;98803.16;5109036;28;20031;-67
2023/02/25 07:42:18;;;;;;;74.22;37.83;;;;;;;4.27;100.00;98787.06;5104647;27;20035;-69
2023/02/25 07:44:43;;;;;;;90.68;43.08;;;;;;;4.15;100.00;98795.09;5103074;28;20031;-70
2023/02/25 07:47:09;;;;;;;72.03;39.38;;;;;;;4.41;100.00;98789.00;5124623;27;20482;-67
2023/02/25 07:49:34;;;;;;;74.93;39.50;;;;;;;4.76;99.56;98798.44;5111931;27;20034;-67
2023/02/25 07:52:00;;;;;;;63.47;35.25;;;;;;;5.09;96.72;98783.56;5109982;28;20034;-67
2023/02/25 07:54:25;;;;;;;67.55;34.60;;;;;;;5.23;94.36;98788.22;5101345;28;20058;-68
2023/02/25 07:56:51;;;;;;;60.65;32.15;;;;;;;5.38;94.11;98798.09;5111061;28;20038;-67
2023/02/25 07:59:17;;;;;;;53.42;30.52;;;;;;;5.64;94.74;98797.44;5111488;28;20497;-67
2023/02/25 08:01:44;;;;;;;45.40;27.60;;;;;;;5.66;92.98;98786.81;5106643;28;20118;-66
2023/02/25 08:04:09;;;;;;;47.55;26.27;;;;;;;5.75;91.98;98771.03;5111272;28;20097;-67
2023/02/25 08:06:39;;;;;;;55.45;28.02;;;;;;;6.09;90.16;98763.97;5109887;28;20032;-67
2023/02/25 08:09:12;;;;;;;47.03;26.42;;;;;;;6.02;90.41;98772.78;5091196;28;20498;-67
2023/02/25 08:11:39;;;;;;;52.53;27.35;;;;;;;6.04;89.12;98776.09;5098447;28;20043;-66
2023/02/25 08:14:05;;;;;;;52.72;29.35;;;;;;;5.83;90.83;98763.88;5111898;28;20431;-67
2023/02/25 08:16:31;;;;;;;61.80;31.35;;;;;;;5.69;91.59;98750.94;5111325;28;20418;-67
2023/02/25 08:18:58;;;;;;;56.80;33.47;;;;;;;5.99;91.71;98745.63;5109506;28;20020;-66
2023/02/25 08:21:23;;;;;;;51.35;28.50;;;;;;;6.58;89.77;98733.34;5110949;28;20027;-67
2023/02/25 08:23:51;;;;;;;47.95;25.80;;;;;;;6.91;86.42;98745.13;5110991;28;20046;-67
2023/02/25 08:26:17;;;;;;;41.00;24.77;;;;;;;7.30;84.55;98729.34;5109598;28;20028;-67
2023/02/25 08:28:44;;;;;;;45.70;25.73;;;;;;;6.95;83.45;98737.75;5110829;28;20034;-66
2023/02/25 08:31:13;;;;;;;48.67;26.88;;;;;;;6.86;85.51;98730.22;5110313;28;20027;-66
2023/02/25 08:33:42;;;;;;;48.25;27.50;;;;;;;6.82;85.18;98729.25;5111213;28;20023;-66
2023/02/25 08:36:11;;;;;;;56.65;28.95;;;;;;;7.01;85.02;98714.22;5109519;28;20461;-68
2023/02/25 08:38:37;;;;;;;55.47;29.15;;;;;;;7.27;83.21;98711.34;5109802;28;20023;-66
2023/02/25 08:41:03;;;;;;;52.72;28.00;;;;;;;7.57;82.85;98710.59;5109704;28;20050;-66
2023/02/25 08:43:29;;;;;;;48.15;28.08;;;;;;;7.72;83.09;98703.66;5109763;28;20486;-65
2023/02/25 08:45:55;;;;;;;52.55;27.92;;;;;;;7.61;81.28;98699.63;5105817;28;20028;-64
2023/02/25 08:48:21;;;;;;;59.25;32.78;;;;;;;8.18;79.83;98689.97;5114377;28;20031;-68
2023/02/25 08:50:46;;;;;;;51.83;28.15;;;;;;;8.22;78.75;98692.91;5107090;27;20036;-70
2023/02/25 08:53:12;;;;;;;55.47;27.50;;;;;;;8.10;80.29;98685.28;5113151;28;20410;-70
2023/02/25 08:55:38;;;;;;;68.40;36.90;;;;;;;8.64;78.38;98678.19;5112450;28;20165;-66
2023/02/25 08:58:04;;;;;;;67.35;37.47;;;;;;;8.99;77.88;98673.09;5125499;27;20154;-66
2023/02/25 09:00:30;;;;;;;53.92;31.63;;;;;;;9.01;77.48;98667.16;5102812;28;20024;-66
2023/02/25 09:02:55;;;;;;;46.90;27.10;;;;;;;9.15;77.23;98672.44;5107520;28;20424;-67
2023/02/25 09:05:23;;;;;;;50.28;28.02;;;;;;;9.25;77.77;98677.59;5104212;28;20422;-66
2023/02/25 09:07:49;;;;;;;50.42;28.00;;;;;;;9.44;77.40;98667.03;5110330;27;20016;-69
2023/02/25 09:10:15;;;;;;;48.95;27.50;;;;;;;9.51;77.37;98670.03;5099799;28;20023;-69
2023/02/25 09:12:41;;;;;;;43.13;25.27;;;;;;;8.96;77.14;98673.78;5120313;27;20031;-69
2023/02/25 09:15:08;;;;;;;57.05;30.42;;;;;;;9.62;77.91;98671.22;5118078;27;20102;-67
2023/02/25 09:17:34;;;;;;;47.40;27.20;;;;;;;9.41;75.88;98669.38;5130795;27;20023;-68
2023/02/25 09:20:00;;;;;;;48.42;28.33;;;;;;;9.37;75.72;98657.25;5114121;28;20106;-67
2023/02/25 09:22:27;;;;;;;51.22;30.60;;;;;;;9.74;76.09;98661.22;5103291;27;20026;-68
2023/02/25 09:24:52;;;;;;;61.55;29.92;;;;;;;9.69;77.20;98662.25;5108235;27;20097;-69
2023/02/25 09:27:18;;;;;;;51.60;28.00;;;;;;;9.61;75.64;98672.38;5114257;27;20023;-68
2023/02/25 09:29:43;;;;;;;48.58;26.70;;;;;;;10.14;75.40;98673.66;5114077;28;20068;-68
2023/02/25 09:32:18;;;;;;;48.00;26.42;;;;;;;10.22;74.17;98670.72;5113749;28;20016;-67
2023/02/25 09:34:44;;;;;;;44.17;26.23;;;;;;;10.50;73.35;98661.59;5113714;28;20027;-68
2023/02/25 09:37:11;;;;;;;48.80;26.00;;;;;;;10.52;73.44;98653.69;5119077;27;20122;-68
2023/02/25 09:39:37;;;;;;;60.90;28.10;;;;;;;10.42;72.05;98653.34;5113032;27;20565;-68
2023/02/25 09:42:21;;;;;;;69.82;33.85;;;;;;;10.80;72.76;98647.25;5119808;27;20132;-67
2023/02/25 09:44:49;;;;;;;71.22;30.25;;;;;;;10.98;70.71;98623.75;5121409;27;20028;-68
2023/02/25 09:47:37;;;;;;;68.43;36.33;;;;;;;11.44;68.15;98624.16;5112891;27;20031;-68
2023/02/25 09:50:14;;;;;;;56.53;30.27;;;;;;;11.52;67.67;98625.97;5098556;28;20051;-68
2023/02/25 09:52:45;;;;;;;54.88;30.88;;;;;;;11.56;66.68;98619.63;5114102;27;20044;-68
2023/02/25 09:55:19;;;;;;;76.43;43.22;;;;;;;11.80;67.19;98619.41;5117665;27;20111;-70
2023/02/25 09:58:11;;;;;;;64.00;40.65;;;;;;;11.70;66.37;98619.16;5113862;27;20245;-68
2023/02/25 10:00:55;;;;;;;64.28;35.38;;;;;;;11.72;65.98;98606.41;5101848;28;20065;-67
2023/02/25 10:03:46;;;;;;;61.45;35.42;;;;;;;11.87;65.94;98615.97;5109359;27;20038;-68
2023/02/25 10:06:20;;;;;;;66.32;40.13;;;;;;;11.91;64.88;98602.03;5101353;28;20028;-69
2023/02/25 10:08:52;;;;;;;58.30;34.55;;;;;;;11.78;65.14;98604.13;5104052;28;20417;-67
2023/02/25 10:11:29;;;;;;;64.47;35.92;;;;;;;12.06;65.19;98597.59;5111948;28;20545;-66
2023/02/25 10:14:22;;;;;;;65.43;31.52;;;;;;;12.24;63.96;98585.97;5108578;27;20042;-69
2023/02/25 10:17:19;;;;;;;69.55;38.53;;;;;;;12.40;63.98;98577.47;5115612;27;20034;-69
2023/02/25 10:19:48;;;;;;;55.22;29.67;;;;;;;12.29;63.94;98571.63;5093447;28;20467;-67
2023/02/25 10:22:31;;;;;;;64.45;35.40;;;;;;;12.10;64.59;98567.66;5110071;27;20023;-72
2023/02/25 10:25:04;;;;;;;111.95;57.10;;;;;;;11.93;64.63;98555.66;5096456;27;20121;-72
2023/02/25 10:27:36;;;;;;;52.10;30.95;;;;;;;11.81;65.75;98541.75;5108361;28;20089;-70
2023/02/25 10:30:23;;;;;;;60.90;31.92;;;;;;;11.59;66.75;98543.28;5110470;27;20630;-69
2023/02/25 10:32:49;;;;;;;64.90;27.77;;;;;;;11.90;65.15;98527.56;5111004;27;20091;-70
2023/02/25 10:35:27;;;;;;;60.55;30.45;;;;;;;11.65;66.13;98534.22;5116230;27;20035;-68
2023/02/25 10:37:53;;;;;;;47.72;29.55;;;;;;;11.77;65.92;98538.09;5093594;28;20034;-69
2023/02/25 10:40:21;;;;;;;60.10;30.33;;;;;;;11.81;65.90;98536.16;5104688;27;20107;-67
2023/02/25 10:42:50;;;;;;;48.13;26.52;;;;;;;11.87;65.78;98526.31;5106720;27;20066;-68
2023/02/25 10:45:25;;;;;;;50.70;29.13;;;;;;;12.04;65.43;98515.88;5111549;27;20032;-70
2023/02/25 10:48:17;;;;;;;49.17;27.75;;;;;;;11.98;65.66;98500.50;5106554;28;20444;-69
2023/02/25 10:51:04;;;;;;;55.50;28.73;;;;;;;11.92;65.46;98506.38;5117040;27;20413;-69
2023/02/25 10:53:30;;;;;;;54.88;30.50;;;;;;;12.03;65.38;98514.25;5095111;28;20020;-69
2023/02/25 10:55:58;;;;;;;48.47;27.75;;;;;;;12.26;64.13;98493.88;5106967;27;20053;-69
2023/02/25 10:58:25;;;;;;;48.53;28.27;;;;;;;12.30;65.34;98486.34;5111568;28;20060;-70
2023/02/25 11:01:04;;;;;;;48.25;26.80;;;;;;;12.79;64.19;98507.28;5103046;28;20039;-69
2023/02/25 11:03:35;;;;;;;44.95;25.25;;;;;;;13.00;62.27;98514.47;5109497;27;20031;-69
2023/02/25 11:06:22;;;;;;;50.88;27.27;;;;;;;13.03;61.36;98503.31;5110834;28;20080;-70
2023/02/25 11:08:48;;;;;;;42.65;25.50;;;;;;;12.86;61.84;98487.78;5110731;28;20027;-70
2023/02/25 11:11:22;;;;;;;45.47;22.83;;;;;;;13.06;61.55;98487.69;5111848;28;20031;-70
2023/02/25 11:14:08;;;;;;;49.45;25.25;;;;;;;13.08;60.49;98478.91;5100759;28;20521;-70
2023/02/25 11:16:36;;;;;;;45.80;24.13;;;;;;;13.16;60.56;98456.19;5116217;27;20050;-69
2023/02/25 11:19:10;;;;;;;45.90;24.02;;;;;;;13.08;60.90;98479.69;5111739;28;20486;-69
2023/02/25 11:21:38;;;;;;;40.72;21.50;;;;;;;13.51;57.59;98464.75;5111757;28;20027;-70
2023/02/25 11:24:16;;;;;;;43.20;23.63;;;;;;;13.78;58.73;98471.13;5109078;28;20431;-69
2023/02/25 11:26:51;;;;;;;49.58;25.30;;;;;;;13.92;58.68;98462.06;5108319;28;20084;-68
2023/02/25 11:29:49;;;;;;;37.72;22.38;;;;;;;13.96;57.50;98445.25;5109475;28;20023;-71
2023/02/25 11:32:18;;;;;;;43.28;22.52;;;;;;;14.09;56.41;98452.22;5060055;28;20050;-69
2023/02/25 11:34:52;;;;;;;40.60;25.77;;;;;;;14.16;56.26;98449.50;5110656;28;20027;-68
2023/02/25 11:37:26;;;;;;;44.78;23.95;;;;;;;14.18;56.22;98447.13;5108982;27;20031;-68